createdAt,value
2023-01-09T00:00:54.571Z,99820.30
2023-01-09T00:06:01.020Z,99808.66
2023-01-09T00:11:04.022Z,99791.54
2023-01-09T00:16:07.973Z,99791.93
2023-01-09T00:21:11.955Z,99793.96
2023-01-09T00:26:17.971Z,99789.95
2023-01-09T00:31:21.432Z,99792.67
2023-01-09T00:36:24.195Z,99798.13
2023-01-09T00:41:45.047Z,99803.42
2023-01-09T00:46:55.969Z,99805.33
2023-01-09T00:51:58.824Z,99796.17
2023-01-09T00:57:01.913Z,99788.90
2023-01-09T01:02:04.857Z,99790.61
2023-01-09T01:07:26.390Z,99774.86
2023-01-09T01:12:29.269Z,99771.86
2023-01-09T01:17:35.426Z,99773.74
2023-01-09T01:22:38.277Z,99760.48
2023-01-09T01:27:42.834Z,99742.56
2023-01-09T01:32:45.797Z,99740.21
2023-01-09T01:37:50.133Z,99727.84
2023-01-09T01:42:54.092Z,99722.70
2023-01-09T01:48:04.880Z,99718.29
2023-01-09T01:53:26.829Z,99709.30
2023-01-09T01:58:29.911Z,99728.08
2023-01-09T02:03:32.696Z,99730.93
2023-01-09T02:08:35.528Z,99734.09
2023-01-09T02:13:41.059Z,99734.75
2023-01-09T02:18:52.269Z,99736.98
2023-01-09T02:24:43.461Z,99729.36
2023-01-09T02:30:30.944Z,99726.61
2023-01-09T02:35:49.903Z,99720.20
2023-01-09T02:41:35.612Z,99714.74
2023-01-09T02:46:38.378Z,99704.66
2023-01-09T02:51:53.732Z,99713.84
2023-01-09T02:57:53.225Z,99714.98
2023-01-09T03:03:03.773Z,99710.06
2023-01-09T03:08:19.181Z,99713.60
2023-01-09T03:13:24.534Z,99701.13
2023-01-09T03:18:27.544Z,99694.35
2023-01-09T03:23:54.453Z,99687.64
2023-01-09T03:28:58.079Z,99674.10
2023-01-09T03:34:00.947Z,99666.33
2023-01-09T03:39:04.160Z,99664.04
2023-01-09T03:44:06.933Z,99660.69
2023-01-09T03:49:10.929Z,99648.27
2023-01-09T03:54:13.715Z,99634.07
2023-01-09T03:59:16.435Z,99631.21
2023-01-09T04:04:19.520Z,99621.61
2023-01-09T04:09:22.290Z,99618.06
2023-01-09T04:14:25.041Z,99627.65
2023-01-09T04:19:27.879Z,99626.16
2023-01-09T04:24:32.408Z,99629.76
2023-01-09T04:29:35.185Z,99627.61
2023-01-09T04:34:38.447Z,99626.96
2023-01-09T04:39:43.970Z,99619.35
2023-01-09T04:44:46.976Z,99621.13
2023-01-09T04:49:49.777Z,99616.61
2023-01-09T04:54:52.607Z,99609.66
2023-01-09T04:59:55.361Z,99603.16
2023-01-09T05:04:58.117Z,99597.39
2023-01-09T05:10:01.483Z,99596.80
2023-01-09T05:15:06.005Z,99595.88
2023-01-09T05:20:09.592Z,99592.14
2023-01-09T05:25:12.399Z,99579.33
2023-01-09T05:30:18.013Z,99575.80
2023-01-09T05:35:21.344Z,99571.89
2023-01-09T05:40:29.157Z,99573.15
2023-01-09T05:45:35.351Z,99564.55
2023-01-09T05:50:38.114Z,99564.05
2023-01-09T05:55:40.946Z,99560.46
2023-01-09T06:00:43.738Z,99550.33
2023-01-09T06:05:46.686Z,99550.06
2023-01-09T06:10:49.522Z,99555.03
2023-01-09T06:15:52.419Z,99554.88
2023-01-09T06:20:55.346Z,99552.02
2023-01-09T06:25:58.169Z,99544.73
2023-01-09T06:31:01.075Z,99548.15
2023-01-09T06:36:04.351Z,99549.27
2023-01-09T06:41:07.114Z,99565.67
2023-01-09T06:46:09.918Z,99556.98
2023-01-09T06:51:12.738Z,99552.51
2023-01-09T06:56:15.428Z,99546.84
2023-01-09T07:01:18.263Z,99535.30
2023-01-09T07:06:21.045Z,99529.91
2023-01-09T07:11:24.277Z,99515.77
2023-01-09T07:16:27.042Z,99514.80
2023-01-09T07:21:32.582Z,99527.04
2023-01-09T07:26:35.591Z,99527.48
2023-01-09T07:31:38.705Z,99527.25
2023-01-09T07:36:41.586Z,99523.58
2023-01-09T07:41:45.044Z,99522.20
2023-01-09T07:46:47.827Z,99518.23
2023-01-09T07:51:50.605Z,99513.23
2023-01-09T07:56:53.357Z,99505.13
2023-01-09T08:01:56.535Z,99505.69
2023-01-09T08:06:59.340Z,99504.70
2023-01-09T08:12:04.105Z,99500.36
2023-01-09T08:17:06.816Z,99495.80
2023-01-09T08:22:10.304Z,99498.14
2023-01-09T08:27:13.156Z,99494.44
2023-01-09T08:32:15.904Z,99493.36
2023-01-09T08:37:18.685Z,99485.49
2023-01-09T08:42:40.332Z,99488.55
2023-01-09T08:47:44.310Z,99488.40
2023-01-09T08:52:48.791Z,99490.50
2023-01-09T08:57:52.781Z,99492.51
2023-01-09T09:02:58.174Z,99483.61
2023-01-09T09:08:03.624Z,99492.02
2023-01-09T09:13:06.501Z,99491.55
2023-01-09T09:18:09.506Z,99483.49
2023-01-09T09:23:12.428Z,99460.86
2023-01-09T09:28:15.221Z,99445.67
2023-01-09T09:33:17.937Z,99449.23
2023-01-09T09:38:21.176Z,99456.49
2023-01-09T09:44:21.340Z,99455.48
2023-01-09T09:49:29.025Z,99450.39
2023-01-09T09:54:43.676Z,99443.83
2023-01-09T09:59:48.226Z,99432.55
2023-01-09T10:04:57.767Z,99432.02
2023-01-09T10:10:02.214Z,99422.83
2023-01-09T10:15:24.365Z,99429.80
2023-01-09T10:20:49.961Z,99421.58
2023-01-09T10:26:05.190Z,99423.09
2023-01-09T10:31:20.530Z,99425.58
2023-01-09T10:37:04.918Z,99423.31
2023-01-09T10:42:17.787Z,99411.48
2023-01-09T10:47:34.446Z,99407.05
2023-01-09T10:52:38.369Z,99398.67
2023-01-09T10:57:46.269Z,99395.55
2023-01-09T11:02:49.514Z,99389.36
2023-01-09T11:08:25.597Z,99381.24
2023-01-09T11:13:31.995Z,99371.65
2023-01-09T11:18:38.715Z,99362.17
2023-01-09T11:23:41.776Z,99360.27
2023-01-09T11:28:44.560Z,99353.02
2023-01-09T11:33:48.298Z,99346.23
2023-01-09T11:38:55.587Z,99343.79
2023-01-09T11:43:58.696Z,99335.80
2023-01-09T11:49:02.923Z,99328.17
2023-01-09T11:54:21.517Z,99323.88
2023-01-09T11:59:29.215Z,99312.70
2023-01-09T12:04:48.407Z,99301.85
2023-01-09T12:10:22.372Z,99294.73
2023-01-09T12:15:57.027Z,99291.58
2023-01-09T12:21:38.180Z,99292.38
2023-01-09T12:27:02.913Z,99289.35
2023-01-09T12:32:47.812Z,99284.27
2023-01-09T12:38:23.169Z,99281.56
2023-01-09T12:44:01.365Z,99283.05
2023-01-09T12:49:17.691Z,99290.11
2023-01-09T12:54:58.536Z,99287.75
2023-01-09T13:00:43.586Z,99281.67
2023-01-09T13:05:51.186Z,99276.99
2023-01-09T13:10:59.913Z,99278.23
2023-01-09T13:16:06.693Z,99271.36
2023-01-09T13:21:09.750Z,99272.96
2023-01-09T13:26:28.410Z,99271.08
2023-01-09T13:31:44.620Z,99264.27
2023-01-09T13:36:52.487Z,99260.92
2023-01-09T13:42:24.914Z,99255.73
2023-01-09T13:47:28.430Z,99252.17
2023-01-09T13:52:37.970Z,99248.77
2023-01-09T13:58:05.928Z,99251.56
2023-01-09T14:03:16.975Z,99248.28
2023-01-09T14:08:22.085Z,99249.86
2023-01-09T14:13:30.917Z,99239.06
2023-01-09T14:18:35.772Z,99239.73
2023-01-09T14:24:06.457Z,99243.85
2023-01-09T14:29:28.613Z,99243.91
2023-01-09T14:34:32.264Z,99234.49
2023-01-09T14:39:35.206Z,99238.09
2023-01-09T14:44:47.356Z,99245.11
2023-01-09T14:50:16.089Z,99249.75
2023-01-09T14:55:53.522Z,99253.63
2023-01-09T15:01:15.959Z,99258.39
2023-01-09T15:06:20.920Z,99253.54
2023-01-09T15:11:23.783Z,99249.80
2023-01-09T15:16:26.725Z,99250.80
2023-01-09T15:21:30.960Z,99256.01
2023-01-09T15:26:33.808Z,99259.27
2023-01-09T15:31:37.228Z,99270.98
2023-01-09T15:36:40.112Z,99273.65
2023-01-09T15:42:01.684Z,99275.42
2023-01-09T15:47:08.577Z,99278.13
2023-01-09T15:52:15.236Z,99280.64
2023-01-09T15:57:27.142Z,99278.98
2023-01-09T16:02:48.517Z,99279.08
2023-01-09T16:07:51.593Z,99278.14
2023-01-09T16:12:54.823Z,99280.21
2023-01-09T16:18:13.621Z,99276.40
2023-01-09T16:29:54.329Z,99280.48
2023-01-09T17:03:53.648Z,99310.42
2023-01-09T17:09:11.699Z,99316.56
2023-01-09T17:33:05.964Z,99324.42
2023-01-09T18:30:05.550Z,99348.26
2023-01-09T18:35:09.153Z,99352.95
2023-01-09T18:40:12.338Z,99362.90
2023-01-09T18:45:15.215Z,99357.52
2023-01-09T18:50:17.988Z,99366.51
2023-01-09T18:55:21.996Z,99369.38
2023-01-09T19:00:24.734Z,99367.02
2023-01-09T19:05:27.541Z,99378.77
2023-01-09T19:10:30.334Z,99392.27
2023-01-09T19:15:34.764Z,99391.23
2023-01-09T19:20:40.595Z,99401.48
2023-01-09T19:25:43.345Z,99412.98
2023-01-09T19:30:46.492Z,99409.36
2023-01-09T19:35:49.413Z,99407.17
2023-01-09T19:40:52.243Z,99414.32
2023-01-09T19:45:55.451Z,99418.98
2023-01-09T19:51:03.499Z,99435.72
2023-01-09T19:56:17.264Z,99438.19
2023-01-09T20:01:25.515Z,99437.84
2023-01-09T20:06:28.354Z,99445.46
2023-01-09T20:11:32.402Z,99447.04
2023-01-09T20:16:35.192Z,99447.24
2023-01-09T20:21:38.263Z,99459.90
2023-01-09T20:26:44.815Z,99459.56
2023-01-09T20:31:47.795Z,99470.21
2023-01-09T20:36:50.698Z,99482.55
2023-01-09T20:41:53.548Z,99490.05
2023-01-09T20:46:56.349Z,99495.90
2023-01-09T20:51:59.113Z,99493.72
2023-01-09T20:57:01.854Z,99491.31
2023-01-09T21:02:04.586Z,99507.40
2023-01-09T21:07:09.262Z,99521.16
2023-01-09T21:12:28.701Z,99528.66
2023-01-09T21:17:36.014Z,99533.80
2023-01-09T21:22:39.592Z,99539.86
2023-01-09T21:27:47.331Z,99554.29
2023-01-09T21:32:50.124Z,99568.74
2023-01-09T21:37:52.933Z,99567.42
2023-01-09T21:43:14.469Z,99569.81
2023-01-09T21:48:17.435Z,99582.80
2023-01-09T21:53:20.143Z,99592.27
2023-01-09T21:58:22.948Z,99596.50
2023-01-09T22:03:25.738Z,99600.05
2023-01-09T22:08:28.567Z,99611.10
2023-01-09T22:13:32.710Z,99619.32
2023-01-09T22:18:36.057Z,99626.75
2023-01-09T22:23:38.796Z,99635.19
2023-01-09T22:28:42.109Z,99635.36
2023-01-09T22:33:52.470Z,99635.90
2023-01-09T22:38:56.926Z,99630.15
2023-01-09T22:43:59.749Z,99633.36
2023-01-09T22:49:03.232Z,99632.19
2023-01-09T22:54:06.260Z,99630.04
2023-01-09T22:59:09.537Z,99623.38
2023-01-09T23:04:16.652Z,99632.23
2023-01-09T23:09:19.539Z,99638.84
2023-01-09T23:14:22.274Z,99648.56
2023-01-09T23:19:25.175Z,99650.30
2023-01-09T23:24:28.432Z,99655.64
2023-01-09T23:29:31.339Z,99661.90
2023-01-09T23:34:34.196Z,99664.31
2023-01-09T23:39:36.953Z,99670.80
2023-01-09T23:44:39.823Z,99674.30
2023-01-09T23:49:43.210Z,99678.58
2023-01-09T23:54:46.010Z,99685.80
2023-01-09T23:59:49.457Z,99693.70
